createdAt,value
2022-12-09T00:00:23.817Z,100568.50
2022-12-09T00:02:51.763Z,100570.94
2022-12-09T00:05:20.033Z,100575.28
2022-12-09T00:07:48.203Z,100584.94
2022-12-09T00:10:17.614Z,100582.44
2022-12-09T00:12:45.522Z,100588.63
2022-12-09T00:15:13.550Z,100591.13
2022-12-09T00:17:41.480Z,100584.13
2022-12-09T00:20:10.876Z,100585.13
2022-12-09T00:22:39.346Z,100579.31
2022-12-09T00:25:08.283Z,100585.69
2022-12-09T00:27:37.747Z,100587.38
2022-12-09T00:30:06.850Z,100585.50
2022-12-09T00:32:35.214Z,100579.59
2022-12-09T00:35:04.437Z,100586.47
2022-12-09T00:37:32.379Z,100584.97
2022-12-09T00:40:00.500Z,100584.28
2022-12-09T00:42:28.622Z,100593.91
2022-12-09T00:44:57.841Z,100588.97
2022-12-09T00:47:26.553Z,100594.59
2022-12-09T00:49:54.643Z,100597.69
2022-12-09T00:52:22.518Z,100600.41
2022-12-09T00:54:50.413Z,100602.19
2022-12-09T00:57:18.729Z,100608.19
2022-12-09T00:59:47.250Z,100609.97
2022-12-09T01:02:16.890Z,100611.75
2022-12-09T01:04:45.424Z,100608.56
2022-12-09T01:07:15.171Z,100616.56
2022-12-09T01:09:43.259Z,100624.63
2022-12-09T01:12:11.239Z,100627.88
2022-12-09T01:14:39.210Z,100629.91
2022-12-09T01:17:07.516Z,100629.59
2022-12-09T01:19:37.285Z,100633.38
2022-12-09T01:22:05.202Z,100633.16
2022-12-09T01:24:33.153Z,100626.31
2022-12-09T01:27:01.269Z,100622.75
2022-12-09T01:29:29.386Z,100625.34
2022-12-09T01:31:57.416Z,100613.97
2022-12-09T01:34:26.819Z,100611.19
2022-12-09T01:36:56.288Z,100610.50
2022-12-09T01:39:24.573Z,100609.69
2022-12-09T01:41:52.947Z,100607.84
2022-12-09T01:44:23.153Z,100620.25
2022-12-09T01:46:55.071Z,100617.06
2022-12-09T01:49:26.025Z,100610.16
2022-12-09T01:52:03.952Z,100611.19
2022-12-09T01:54:33.094Z,100614.56
2022-12-09T01:57:01.086Z,100610.94
2022-12-09T01:59:30.488Z,100615.34
2022-12-09T02:02:00.986Z,100622.19
2022-12-09T02:04:33.649Z,100612.47
2022-12-09T02:07:07.161Z,100621.63
2022-12-09T02:09:35.628Z,100606.75
2022-12-09T02:12:13.623Z,100618.25
2022-12-09T02:14:44.151Z,100616.91
2022-12-09T02:17:28.935Z,100610.19
2022-12-09T02:20:06.363Z,100613.22
2022-12-09T02:22:42.271Z,100613.16
2022-12-09T02:25:23.180Z,100607.72
2022-12-09T02:28:07.412Z,100606.88
2022-12-09T02:30:42.136Z,100611.63
2022-12-09T02:33:27.543Z,100598.34
2022-12-09T02:36:03.360Z,100603.41
2022-12-09T02:38:34.661Z,100605.28
2022-12-09T02:41:06.924Z,100597.13
2022-12-09T02:43:45.166Z,100594.25
2022-12-09T02:46:21.229Z,100589.59
2022-12-09T02:48:54.244Z,100588.81
2022-12-09T02:51:27.290Z,100590.59
2022-12-09T02:53:57.339Z,100582.97
2022-12-09T02:56:26.254Z,100590.03
2022-12-09T02:58:54.609Z,100585.47
2022-12-09T03:01:33.527Z,100588.56
2022-12-09T03:04:03.874Z,100592.69
2022-12-09T03:06:41.628Z,100591.38
2022-12-09T03:09:12.979Z,100586.63
2022-12-09T03:11:42.254Z,100586.97
2022-12-09T03:14:13.909Z,100590.53
2022-12-09T03:16:47.089Z,100592.06
2022-12-09T03:19:21.488Z,100580.88
2022-12-09T03:21:55.402Z,100581.19
2022-12-09T03:24:28.875Z,100586.00
2022-12-09T03:26:59.851Z,100581.59
2022-12-09T03:29:30.357Z,100594.63
2022-12-09T03:32:00.282Z,100586.00
2022-12-09T03:34:35.704Z,100589.59
2022-12-09T03:37:08.253Z,100581.06
2022-12-09T03:39:40.148Z,100588.41
2022-12-09T03:42:16.570Z,100588.97
2022-12-09T03:44:49.963Z,100594.09
2022-12-09T03:47:18.091Z,100593.63
2022-12-09T03:49:46.258Z,100599.84
2022-12-09T03:52:20.325Z,100593.63
2022-12-09T03:54:51.885Z,100585.69
2022-12-09T03:57:21.402Z,100587.97
2022-12-09T03:59:55.348Z,100591.31
2022-12-09T04:02:23.749Z,100595.75
2022-12-09T04:04:52.533Z,100588.50
2022-12-09T04:07:22.195Z,100581.34
2022-12-09T04:09:50.163Z,100589.06
2022-12-09T04:12:18.862Z,100582.75
2022-12-09T04:14:47.102Z,100578.34
2022-12-09T04:17:15.389Z,100580.88
2022-12-09T04:19:43.325Z,100582.44
2022-12-09T04:22:11.272Z,100579.09
2022-12-09T04:24:40.555Z,100578.88
2022-12-09T04:27:08.564Z,100586.47
2022-12-09T04:29:36.474Z,100580.88
2022-12-09T04:32:04.476Z,100578.22
2022-12-09T04:34:33.993Z,100579.09
2022-12-09T04:37:02.016Z,100571.88
2022-12-09T04:39:30.253Z,100577.22
2022-12-09T04:41:59.872Z,100576.66
2022-12-09T04:44:27.928Z,100575.72
2022-12-09T04:46:55.884Z,100579.16
2022-12-09T04:49:24.402Z,100586.31
2022-12-09T04:51:52.290Z,100597.81
2022-12-09T04:54:20.201Z,100583.38
2022-12-09T04:56:50.332Z,100585.47
2022-12-09T04:59:19.822Z,100590.53
2022-12-09T05:01:47.930Z,100584.00
2022-12-09T05:04:16.451Z,100590.44
2022-12-09T05:06:44.908Z,100591.75
2022-12-09T05:09:14.341Z,100588.19
2022-12-09T05:11:42.666Z,100579.34
2022-12-09T05:14:10.781Z,100580.50
2022-12-09T05:16:40.548Z,100574.97
2022-12-09T05:19:08.665Z,100583.06
2022-12-09T05:21:37.447Z,100576.75
2022-12-09T05:24:06.342Z,100572.81
2022-12-09T05:26:34.508Z,100578.72
2022-12-09T05:29:02.540Z,100583.34
2022-12-09T05:31:31.183Z,100582.56
2022-12-09T05:34:00.650Z,100583.03
2022-12-09T05:36:29.104Z,100589.25
2022-12-09T05:38:57.261Z,100594.91
2022-12-09T05:41:26.283Z,100601.91
2022-12-09T05:43:54.292Z,100599.59
2022-12-09T05:46:22.935Z,100591.28
2022-12-09T05:48:51.631Z,100587.56
2022-12-09T05:51:24.815Z,100594.25
2022-12-09T05:53:53.977Z,100594.69
2022-12-09T05:56:23.533Z,100597.06
2022-12-09T05:58:53.314Z,100597.84
2022-12-09T06:01:22.264Z,100597.50
2022-12-09T06:03:52.129Z,100592.88
2022-12-09T06:06:23.970Z,100591.44
2022-12-09T06:08:56.361Z,100593.00
2022-12-09T06:11:25.040Z,100587.88
2022-12-09T06:13:53.704Z,100587.44
2022-12-09T06:16:23.388Z,100594.09
2022-12-09T06:18:51.997Z,100590.78
2022-12-09T06:21:22.721Z,100595.28
2022-12-09T06:23:51.662Z,100597.59
2022-12-09T06:26:22.160Z,100598.53
2022-12-09T06:28:50.842Z,100589.28
2022-12-09T06:31:19.723Z,100596.81
2022-12-09T06:33:57.165Z,100603.41
2022-12-09T06:36:29.379Z,100600.84
2022-12-09T06:39:04.537Z,100599.34
2022-12-09T06:41:37.972Z,100596.69
2022-12-09T06:44:06.186Z,100607.47
2022-12-09T06:46:34.549Z,100607.13
2022-12-09T06:49:02.725Z,100609.53
2022-12-09T06:51:32.099Z,100606.66
2022-12-09T06:54:00.410Z,100617.41
2022-12-09T06:56:28.438Z,100608.06
2022-12-09T06:58:56.952Z,100613.66
2022-12-09T07:01:26.742Z,100608.84
2022-12-09T07:03:57.041Z,100609.94
2022-12-09T07:06:29.132Z,100614.44
2022-12-09T07:09:02.302Z,100610.69
2022-12-09T07:11:31.090Z,100613.00
2022-12-09T07:13:59.909Z,100611.13
2022-12-09T07:16:29.314Z,100610.75
2022-12-09T07:18:58.354Z,100606.38
2022-12-09T07:21:26.944Z,100613.47
2022-12-09T07:23:55.424Z,100614.72
2022-12-09T07:26:26.328Z,100616.19
2022-12-09T07:28:54.402Z,100619.78
2022-12-09T07:31:30.315Z,100617.22
2022-12-09T07:34:00.015Z,100625.94
2022-12-09T07:36:30.947Z,100617.53
2022-12-09T07:39:00.980Z,100615.56
2022-12-09T07:41:30.970Z,100622.78
2022-12-09T07:43:59.220Z,100622.28
2022-12-09T07:46:28.768Z,100625.25
2022-12-09T07:48:58.662Z,100630.28
2022-12-09T07:51:27.019Z,100624.84
2022-12-09T07:53:55.662Z,100622.66
2022-12-09T07:56:24.771Z,100625.84
2022-12-09T07:58:54.593Z,100621.88
2022-12-09T08:01:25.377Z,100623.66
2022-12-09T08:03:54.481Z,100630.94
2022-12-09T08:06:25.917Z,100635.56
2022-12-09T08:08:54.910Z,100634.28
2022-12-09T08:11:24.596Z,100636.16
2022-12-09T08:13:56.997Z,100634.16
2022-12-09T08:16:25.904Z,100624.81
2022-12-09T08:18:55.414Z,100627.34
2022-12-09T08:21:25.636Z,100627.44
2022-12-09T08:23:55.576Z,100624.81
2022-12-09T08:26:25.536Z,100621.63
2022-12-09T08:28:55.702Z,100625.72
2022-12-09T08:31:26.108Z,100629.72
2022-12-09T08:33:55.705Z,100633.91
2022-12-09T08:36:26.450Z,100643.00
2022-12-09T08:38:55.415Z,100630.38
2022-12-09T08:41:35.931Z,100638.22
2022-12-09T08:44:08.828Z,100639.00
2022-12-09T08:46:39.429Z,100637.31
2022-12-09T08:49:08.283Z,100648.66
2022-12-09T08:51:36.634Z,100654.81
2022-12-09T08:54:06.785Z,100645.22
2022-12-09T08:56:35.005Z,100647.59
2022-12-09T08:59:04.015Z,100648.13
2022-12-09T09:01:35.884Z,100664.69
2022-12-09T09:04:06.812Z,100652.84
2022-12-09T09:06:36.236Z,100656.44
2022-12-09T09:09:05.013Z,100649.44
2022-12-09T09:11:33.475Z,100657.00
2022-12-09T09:14:04.392Z,100660.03
2022-12-09T09:16:34.651Z,100649.91
2022-12-09T09:19:05.841Z,100656.16
2022-12-09T09:21:35.737Z,100660.09
2022-12-09T09:24:08.691Z,100657.63
2022-12-09T09:26:40.144Z,100666.09
2022-12-09T09:29:08.567Z,100660.63
2022-12-09T09:31:38.284Z,100658.63
2022-12-09T09:34:06.546Z,100659.69
2022-12-09T09:36:34.762Z,100655.97
2022-12-09T09:39:03.151Z,100652.09
2022-12-09T09:41:43.722Z,100651.63
2022-12-09T09:44:19.947Z,100647.28
2022-12-09T09:46:51.659Z,100654.66
2022-12-09T09:49:27.914Z,100653.41
2022-12-09T09:51:56.362Z,100650.78
2022-12-09T09:54:24.374Z,100657.47
2022-12-09T09:57:00.036Z,100649.28
2022-12-09T09:59:39.332Z,100649.44
2022-12-09T10:02:19.748Z,100652.34
2022-12-09T10:05:04.645Z,100649.28
2022-12-09T10:07:40.118Z,100650.25
2022-12-09T10:10:21.778Z,100639.16
2022-12-09T10:13:09.477Z,100636.53
2022-12-09T10:15:46.632Z,100634.16
2022-12-09T10:18:21.927Z,100637.06
2022-12-09T10:20:50.467Z,100630.44
2022-12-09T10:23:19.184Z,100632.28
2022-12-09T10:25:51.958Z,100627.22
2022-12-09T10:28:23.118Z,100628.19
2022-12-09T10:30:53.472Z,100631.84
2022-12-09T10:33:28.490Z,100629.91
2022-12-09T10:35:57.050Z,100639.88
2022-12-09T10:38:26.724Z,100637.88
2022-12-09T10:41:03.846Z,100643.28
2022-12-09T10:43:37.453Z,100643.28
2022-12-09T10:46:19.319Z,100631.16
2022-12-09T10:49:01.545Z,100634.88
2022-12-09T10:51:32.021Z,100629.19
2022-12-09T10:54:02.711Z,100628.16
2022-12-09T10:56:33.332Z,100618.03
2022-12-09T10:59:11.810Z,100622.78
2022-12-09T11:01:50.910Z,100619.34
2022-12-09T11:04:24.881Z,100615.53
2022-12-09T11:06:59.396Z,100607.41
2022-12-09T11:09:31.323Z,100609.00
2022-12-09T11:12:01.190Z,100612.56
2022-12-09T11:14:35.291Z,100611.34
2022-12-09T11:17:15.615Z,100601.56
2022-12-09T11:19:48.911Z,100601.84
2022-12-09T11:22:33.524Z,100605.53
2022-12-09T11:25:20.125Z,100590.88
2022-12-09T11:27:52.419Z,100592.53
2022-12-09T11:30:23.488Z,100582.34
2022-12-09T11:33:02.251Z,100578.69
2022-12-09T11:35:40.057Z,100580.72
2022-12-09T11:38:18.653Z,100585.97
2022-12-09T11:41:02.908Z,100572.47
2022-12-09T11:43:34.664Z,100587.25
2022-12-09T11:46:16.351Z,100578.13
2022-12-09T11:48:50.754Z,100576.75
2022-12-09T11:51:24.018Z,100585.53
2022-12-09T11:54:01.776Z,100580.47
2022-12-09T11:56:31.650Z,100573.78
2022-12-09T11:59:04.251Z,100579.09
2022-12-09T12:01:45.813Z,100570.16
2022-12-09T12:04:16.179Z,100578.75
2022-12-09T12:06:48.911Z,100568.69
2022-12-09T12:09:23.707Z,100583.47
2022-12-09T12:12:03.586Z,100581.31
2022-12-09T12:14:32.192Z,100584.13
2022-12-09T12:17:10.326Z,100568.50
2022-12-09T12:19:40.818Z,100581.44
2022-12-09T12:22:28.648Z,100571.88
2022-12-09T12:25:17.328Z,100569.09
2022-12-09T12:28:03.195Z,100570.03
2022-12-09T12:30:41.469Z,100556.72
2022-12-09T12:34:00.377Z,100554.59
2022-12-09T12:36:29.098Z,100551.47
2022-12-09T12:39:06.699Z,100548.47
2022-12-09T12:41:42.685Z,100554.38
2022-12-09T12:44:54.399Z,100555.25
2022-12-09T12:47:30.424Z,100542.03
2022-12-09T12:50:12.791Z,100547.59
2022-12-09T12:52:55.906Z,100541.72
2022-12-09T12:55:53.716Z,100548.25
2022-12-09T12:58:50.269Z,100542.78
2022-12-09T13:01:33.158Z,100540.19
2022-12-09T13:04:18.639Z,100543.91
2022-12-09T13:06:56.137Z,100550.31
2022-12-09T13:09:30.459Z,100550.16
2022-12-09T13:12:08.982Z,100539.09
2022-12-09T13:14:41.951Z,100538.50
2022-12-09T13:17:14.889Z,100548.97
2022-12-09T13:19:45.594Z,100542.31
2022-12-09T13:22:20.537Z,100535.53
2022-12-09T13:25:00.109Z,100531.81
2022-12-09T13:27:38.635Z,100533.69
2022-12-09T13:30:14.385Z,100527.88
2022-12-09T13:33:16.655Z,100533.84
2022-12-09T13:35:54.862Z,100538.03
2022-12-09T13:38:28.123Z,100537.84
2022-12-09T13:40:55.800Z,100546.28
2022-12-09T13:43:27.530Z,100545.28
2022-12-09T13:45:58.021Z,100544.44
2022-12-09T13:48:48.636Z,100541.25
2022-12-09T13:51:18.294Z,100545.66
2022-12-09T13:53:53.648Z,100553.44
2022-12-09T13:56:26.831Z,100564.56
2022-12-09T13:59:40.098Z,100569.06
2022-12-09T14:02:21.368Z,100569.88
2022-12-09T14:05:00.442Z,100582.13
2022-12-09T14:07:35.369Z,100569.44
2022-12-09T14:10:04.689Z,100557.25
2022-12-09T14:13:03.945Z,100565.19
2022-12-09T14:15:37.789Z,100566.69
2022-12-09T14:18:28.791Z,100579.59
2022-12-09T14:21:31.148Z,100566.72
2022-12-09T14:24:33.783Z,100576.03
2022-12-09T14:27:20.754Z,100574.31
2022-12-09T14:29:52.545Z,100572.25
2022-12-09T14:32:23.146Z,100578.91
2022-12-09T14:35:06.058Z,100589.88
2022-12-09T14:38:04.604Z,100573.22
2022-12-09T14:40:53.556Z,100570.44
2022-12-09T14:43:50.461Z,100567.00
2022-12-09T14:46:25.425Z,100571.00
2022-12-09T14:48:57.500Z,100573.06
2022-12-09T14:51:34.770Z,100573.53
2022-12-09T14:54:07.284Z,100569.38
2022-12-09T14:56:36.056Z,100572.25
2022-12-09T14:59:07.661Z,100565.38
2022-12-09T15:01:52.546Z,100571.44
2022-12-09T15:04:30.979Z,100586.78
2022-12-09T15:07:11.485Z,100595.41
2022-12-09T15:09:48.132Z,100590.72
2022-12-09T15:12:16.309Z,100588.25
2022-12-09T15:14:45.721Z,100582.06
2022-12-09T15:17:28.851Z,100586.88
2022-12-09T15:20:01.037Z,100583.41
2022-12-09T15:22:33.361Z,100583.16
2022-12-09T15:25:02.461Z,100597.56
2022-12-09T15:27:31.497Z,100595.50
2022-12-09T15:30:14.888Z,100593.94
2022-12-09T15:32:42.578Z,100599.94
2022-12-09T15:35:18.631Z,100600.44
2022-12-09T15:37:50.593Z,100598.38
2022-12-09T15:40:22.352Z,100595.72
2022-12-09T15:42:53.648Z,100599.25
2022-12-09T15:45:24.290Z,100600.66
2022-12-09T15:47:57.749Z,100591.00
2022-12-09T15:50:30.705Z,100595.75
2022-12-09T15:53:05.524Z,100596.94
2022-12-09T15:55:38.554Z,100589.81
2022-12-09T15:58:08.763Z,100598.25
2022-12-09T16:00:40.809Z,100588.75
2022-12-09T16:03:09.368Z,100596.47
2022-12-09T16:05:41.748Z,100604.94
2022-12-09T16:08:11.749Z,100598.44
2022-12-09T16:10:47.665Z,100610.75
2022-12-09T16:13:17.676Z,100609.03
2022-12-09T16:15:51.808Z,100613.69
2022-12-09T16:18:23.331Z,100621.31
2022-12-09T16:21:16.149Z,100624.72
2022-12-09T16:23:48.170Z,100615.69
2022-12-09T16:26:22.297Z,100608.38
2022-12-09T16:28:56.813Z,100612.47
2022-12-09T16:31:25.151Z,100610.44
2022-12-09T16:33:53.490Z,100603.66
2022-12-09T16:36:25.147Z,100607.22
2022-12-09T16:39:27.875Z,100606.66
2022-12-09T16:41:58.699Z,100608.13
2022-12-09T16:44:30.837Z,100608.13
2022-12-09T16:47:20.859Z,100615.63
2022-12-09T16:49:49.645Z,100611.50
2022-12-09T16:52:21.279Z,100613.31
2022-12-09T16:54:52.031Z,100604.94
2022-12-09T16:57:21.221Z,100609.03
2022-12-09T16:59:49.291Z,100603.16
2022-12-09T17:02:22.366Z,100600.72
2022-12-09T17:04:50.522Z,100594.81
2022-12-09T17:07:18.493Z,100585.97
2022-12-09T17:09:46.388Z,100579.50
2022-12-09T17:12:15.613Z,100589.03
2022-12-09T17:14:43.601Z,100595.38
2022-12-09T17:17:11.463Z,100584.81
2022-12-09T17:19:41.695Z,100587.81
2022-12-09T17:22:09.889Z,100590.53
2022-12-09T17:24:37.859Z,100578.91
2022-12-09T17:27:05.690Z,100580.41
2022-12-09T17:29:34.895Z,100581.81
2022-12-09T17:32:02.786Z,100582.97
2022-12-09T17:34:30.654Z,100580.94
2022-12-09T17:36:58.753Z,100577.00
2022-12-09T17:39:26.628Z,100588.13
2022-12-09T17:41:54.542Z,100587.81
2022-12-09T17:44:22.609Z,100588.97
2022-12-09T17:46:51.777Z,100594.88
2022-12-09T17:49:20.933Z,100584.13
2022-12-09T17:51:49.151Z,100581.25
2022-12-09T17:54:16.988Z,100586.09
2022-12-09T17:56:46.565Z,100590.69
2022-12-09T17:59:16.771Z,100591.53
2022-12-09T18:01:46.225Z,100596.09
2022-12-09T18:04:16.225Z,100597.88
2022-12-09T18:06:45.535Z,100612.13
2022-12-09T18:09:15.539Z,100611.50
2022-12-09T18:11:44.121Z,100605.00
2022-12-09T18:14:12.003Z,100611.19
2022-12-09T18:16:40.311Z,100613.03
2022-12-09T18:19:11.165Z,100615.13
2022-12-09T18:21:40.604Z,100610.31
2022-12-09T18:24:09.288Z,100617.22
2022-12-09T18:26:41.548Z,100614.31
2022-12-09T18:29:10.556Z,100607.25
2022-12-09T18:31:38.540Z,100610.13
2022-12-09T18:34:06.534Z,100606.22
2022-12-09T18:36:34.513Z,100609.84
2022-12-09T18:39:04.199Z,100613.81
2022-12-09T18:41:32.621Z,100618.31
2022-12-09T18:44:04.016Z,100614.50
2022-12-09T18:46:33.789Z,100622.34
2022-12-09T18:49:03.692Z,100627.03
2022-12-09T18:51:32.851Z,100627.09
2022-12-09T18:54:02.122Z,100624.38
2022-12-09T18:56:32.066Z,100628.31
2022-12-09T18:59:09.019Z,100633.03
2022-12-09T19:01:40.609Z,100634.75
2022-12-09T19:04:12.514Z,100631.91
2022-12-09T19:06:41.824Z,100641.22
2022-12-09T19:09:13.181Z,100625.28
2022-12-09T19:11:43.100Z,100633.28
2022-12-09T19:14:11.556Z,100630.75
2022-12-09T19:16:39.782Z,100627.31
2022-12-09T19:19:10.453Z,100638.78
2022-12-09T19:21:39.766Z,100630.03
2022-12-09T19:24:08.863Z,100636.81
2022-12-09T19:26:37.633Z,100639.97
2022-12-09T19:29:08.868Z,100635.66
2022-12-09T19:31:39.920Z,100642.50
2022-12-09T19:34:11.978Z,100636.56
2022-12-09T19:36:39.932Z,100634.53
2022-12-09T19:39:09.305Z,100639.94
2022-12-09T19:41:37.886Z,100644.31
2022-12-09T19:44:08.553Z,100642.16
2022-12-09T19:46:38.437Z,100636.97
2022-12-09T19:49:06.534Z,100645.88
2022-12-09T19:51:34.877Z,100639.53
2022-12-09T19:54:03.188Z,100654.31
2022-12-09T19:56:31.501Z,100661.88
2022-12-09T19:59:00.711Z,100656.22
2022-12-09T20:01:32.562Z,100657.53
2022-12-09T20:04:19.041Z,100655.03
2022-12-09T20:06:51.630Z,100657.34
2022-12-09T20:09:24.353Z,100654.44
2022-12-09T20:11:52.883Z,100659.78
2022-12-09T20:14:21.188Z,100658.47
2022-12-09T20:16:50.520Z,100658.28
2022-12-09T20:19:19.761Z,100664.06
2022-12-09T20:21:47.691Z,100665.41
2022-12-09T20:24:15.597Z,100652.16
2022-12-09T20:26:44.291Z,100651.47
2022-12-09T20:29:12.306Z,100650.19
2022-12-09T20:31:41.029Z,100645.16
2022-12-09T20:34:13.363Z,100657.19
2022-12-09T20:36:43.294Z,100643.88
2022-12-09T20:39:14.960Z,100650.94
2022-12-09T20:41:44.435Z,100651.53
2022-12-09T20:44:13.623Z,100662.03
2022-12-09T20:46:45.218Z,100663.31
2022-12-09T20:49:14.539Z,100661.97
2022-12-09T20:51:45.112Z,100667.56
2022-12-09T20:54:13.090Z,100669.22
2022-12-09T20:56:41.138Z,100668.84
2022-12-09T20:59:10.558Z,100672.47
2022-12-09T21:01:39.233Z,100677.38
2022-12-09T21:04:08.439Z,100672.34
2022-12-09T21:06:40.104Z,100675.34
2022-12-09T21:09:10.290Z,100671.66
2022-12-09T21:11:39.459Z,100672.59
2022-12-09T21:14:07.983Z,100670.09
2022-12-09T21:16:38.751Z,100666.06
2022-12-09T21:19:10.304Z,100663.88
2022-12-09T21:21:41.400Z,100667.81
2022-12-09T21:24:11.767Z,100667.75
2022-12-09T21:26:40.347Z,100675.25
2022-12-09T21:29:09.134Z,100665.34
2022-12-09T21:31:38.862Z,100664.91
2022-12-09T21:34:08.498Z,100666.66
2022-12-09T21:36:38.656Z,100665.72
2022-12-09T21:39:09.049Z,100661.63
2022-12-09T21:41:38.293Z,100670.97
2022-12-09T21:44:07.427Z,100669.25
2022-12-09T21:46:37.418Z,100674.22
2022-12-09T21:49:07.375Z,100678.22
2022-12-09T21:51:36.422Z,100665.66
2022-12-09T21:54:04.814Z,100670.31
2022-12-09T21:56:35.738Z,100674.06
2022-12-09T21:59:05.974Z,100671.47
2022-12-09T22:01:35.754Z,100670.31
2022-12-09T22:04:05.735Z,100664.78
2022-12-09T22:06:34.015Z,100667.06
2022-12-09T22:09:03.610Z,100658.19
2022-12-09T22:11:33.037Z,100660.63
2022-12-09T22:14:02.841Z,100661.78
2022-12-09T22:16:33.205Z,100664.44
2022-12-09T22:19:03.057Z,100662.63
2022-12-09T22:21:33.656Z,100663.63
2022-12-09T22:24:04.440Z,100665.91
2022-12-09T22:26:32.884Z,100664.66
2022-12-09T22:29:03.503Z,100665.34
2022-12-09T22:31:33.338Z,100666.34
2022-12-09T22:34:03.203Z,100676.00
2022-12-09T22:36:31.345Z,100664.53
2022-12-09T22:38:59.309Z,100664.00
2022-12-09T22:41:29.852Z,100662.81
2022-12-09T22:43:58.586Z,100659.38
2022-12-09T22:46:29.574Z,100661.47
2022-12-09T22:48:58.255Z,100666.50
2022-12-09T22:51:28.070Z,100680.47
2022-12-09T22:53:57.816Z,100670.31
2022-12-09T22:56:26.833Z,100662.94
2022-12-09T22:58:55.243Z,100664.72
2022-12-09T23:01:25.698Z,100660.81
2022-12-09T23:03:55.942Z,100659.50
2022-12-09T23:06:24.526Z,100656.81
2022-12-09T23:08:52.725Z,100671.38
2022-12-09T23:11:22.569Z,100668.50
2022-12-09T23:13:51.210Z,100671.13
2022-12-09T23:16:21.846Z,100667.34
2022-12-09T23:18:51.217Z,100675.47
2022-12-09T23:21:22.584Z,100671.69
2022-12-09T23:23:53.393Z,100671.88
2022-12-09T23:26:23.081Z,100672.50
2022-12-09T23:28:52.565Z,100666.38
2022-12-09T23:31:22.957Z,100661.28
2022-12-09T23:33:52.458Z,100668.34
2022-12-09T23:36:22.913Z,100670.19
2022-12-09T23:38:52.183Z,100672.44
2022-12-09T23:41:22.829Z,100673.09
2022-12-09T23:43:51.889Z,100665.06
2022-12-09T23:46:21.574Z,100671.19
2022-12-09T23:48:51.005Z,100670.72
2022-12-09T23:51:22.299Z,100666.31
2022-12-09T23:53:52.079Z,100664.78
2022-12-09T23:56:22.133Z,100669.06
2022-12-09T23:58:55.078Z,100656.41
